sensor_id;sensor_type;location;lat;lon;timestamp;pressure;altitude;pressure_sealevel;temperature;humidity
8477;BME280;4275;42.854;23.222;2022-08-07T00:01:56;81333.47;;;-141.02;72.06
8477;BME280;4275;42.854;23.222;2022-08-07T00:04:23;81383.97;;;-141.02;72.34
8477;BME280;4275;42.854;23.222;2022-08-07T00:06:50;81399.50;;;-141.02;72.71
8477;BME280;4275;42.854;23.222;2022-08-07T00:09:18;81405.31;;;-141.02;73.13
8477;BME280;4275;42.854;23.222;2022-08-07T00:11:47;81279.13;;;-141.02;73.49
8477;BME280;4275;42.854;23.222;2022-08-07T00:14:14;81409.22;;;-141.02;74.31
8477;BME280;4275;42.854;23.222;2022-08-07T00:16:41;81442.22;;;-141.02;75.03
8477;BME280;4275;42.854;23.222;2022-08-07T00:19:08;81432.50;;;-141.02;75.49
8477;BME280;4275;42.854;23.222;2022-08-07T00:21:35;81430.56;;;-141.02;75.67
8477;BME280;4275;42.854;23.222;2022-08-07T00:24:02;81449.97;;;-141.02;75.79
8477;BME280;4275;42.854;23.222;2022-08-07T00:26:29;81442.22;;;-141.02;76.57
8477;BME280;4275;42.854;23.222;2022-08-07T00:28:58;81446.09;;;-141.02;77.65
8477;BME280;4275;42.854;23.222;2022-08-07T00:31:25;81453.88;;;-141.02;77.80
8477;BME280;4275;42.854;23.222;2022-08-07T00:33:52;81512.13;;;-141.02;78.41
8477;BME280;4275;42.854;23.222;2022-08-07T00:36:19;81508.22;;;-141.02;80.33
8477;BME280;4275;42.854;23.222;2022-08-07T00:38:46;81531.53;;;-141.02;82.02
8477;BME280;4275;42.854;23.222;2022-08-07T00:41:13;81512.13;;;-141.02;82.47
8477;BME280;4275;42.854;23.222;2022-08-07T00:43:40;81488.81;;;-141.02;79.75
8477;BME280;4275;42.854;23.222;2022-08-07T00:46:08;81527.66;;;-141.02;80.17
8477;BME280;4275;42.854;23.222;2022-08-07T00:48:35;81496.59;;;-141.02;80.83
8477;BME280;4275;42.854;23.222;2022-08-07T00:51:03;81473.28;;;-141.02;80.15
8477;BME280;4275;42.854;23.222;2022-08-07T00:53:30;81484.94;;;-141.02;79.60
8477;BME280;4275;42.854;23.222;2022-08-07T00:55:57;81475.22;;;-141.02;79.55
8477;BME280;4275;42.854;23.222;2022-08-07T00:58:24;81473.28;;;-141.02;78.94
8477;BME280;4275;42.854;23.222;2022-08-07T01:00:51;81440.28;;;-141.02;77.58
8477;BME280;4275;42.854;23.222;2022-08-07T01:03:20;81442.22;;;-141.02;75.61
8477;BME280;4275;42.854;23.222;2022-08-07T01:05:48;81374.25;;;-141.02;77.32
8477;BME280;4275;42.854;23.222;2022-08-07T01:08:15;81446.09;;;-141.02;76.51
8477;BME280;4275;42.854;23.222;2022-08-07T01:10:42;81438.34;;;-141.02;76.09
8477;BME280;4275;42.854;23.222;2022-08-07T01:13:09;81473.28;;;-141.02;75.93
8477;BME280;4275;42.854;23.222;2022-08-07T01:15:37;81349.00;;;-141.02;78.13
8477;BME280;4275;42.854;23.222;2022-08-07T01:18:04;81475.22;;;-141.02;79.13
8477;BME280;4275;42.854;23.222;2022-08-07T01:20:42;81191.75;;;-141.02;80.77
8477;BME280;4275;42.854;23.222;2022-08-07T01:23:12;81574.25;;;-141.02;83.53
8477;BME280;4275;42.854;23.222;2022-08-07T01:25:41;81554.84;;;-141.02;84.75
8477;BME280;4275;42.854;23.222;2022-08-07T01:28:08;81566.47;;;-141.02;85.87
8477;BME280;4275;42.854;23.222;2022-08-07T01:30:36;81624.72;;;-141.02;86.42
8477;BME280;4275;42.854;23.222;2022-08-07T01:33:04;81593.66;;;-141.02;86.29
8477;BME280;4275;42.854;23.222;2022-08-07T01:35:31;81585.91;;;-141.02;88.37
8477;BME280;4275;42.854;23.222;2022-08-07T01:37:58;81601.44;;;-141.02;89.56
8477;BME280;4275;42.854;23.222;2022-08-07T01:40:27;81593.66;;;-141.02;88.48
8477;BME280;4275;42.854;23.222;2022-08-07T01:42:55;81613.09;;;-141.02;87.26
8477;BME280;4275;42.854;23.222;2022-08-07T01:45:23;81527.66;;;-141.02;86.12
8477;BME280;4275;42.854;23.222;2022-08-07T01:47:51;81453.88;;;-141.02;80.26
8477;BME280;4275;42.854;23.222;2022-08-07T01:50:18;81329.59;;;-141.02;74.95
8477;BME280;4275;42.854;23.222;2022-08-07T01:52:46;81304.34;;;-141.02;72.54
8477;BME280;4275;42.854;23.222;2022-08-07T01:55:16;81298.53;;;-141.02;71.35
8477;BME280;4275;42.854;23.222;2022-08-07T01:57:46;81248.06;;;-141.02;71.99
8477;BME280;4275;42.854;23.222;2022-08-07T02:00:14;81286.88;;;-141.02;72.51
8477;BME280;4275;42.854;23.222;2022-08-07T02:02:45;81213.09;;;-141.02;73.68
8477;BME280;4275;42.854;23.222;2022-08-07T02:05:16;81352.91;;;-141.02;74.56
8477;BME280;4275;42.854;23.222;2022-08-07T02:07:48;81349.00;;;-141.02;75.05
8477;BME280;4275;42.854;23.222;2022-08-07T02:10:18;81337.38;;;-141.02;75.61
8477;BME280;4275;42.854;23.222;2022-08-07T02:12:51;81372.31;;;-141.02;76.32
8477;BME280;4275;42.854;23.222;2022-08-07T02:15:21;81292.72;;;-141.02;77.31
8477;BME280;4275;42.854;23.222;2022-08-07T02:17:50;81407.25;;;-141.02;78.98
8477;BME280;4275;42.854;23.222;2022-08-07T02:20:18;81418.91;;;-141.02;79.88
8477;BME280;4275;42.854;23.222;2022-08-07T02:22:46;81422.81;;;-141.02;80.34
8477;BME280;4275;42.854;23.222;2022-08-07T02:25:17;81415.03;;;-141.02;81.26
8477;BME280;4275;42.854;23.222;2022-08-07T02:27:46;81430.56;;;-141.02;81.27
8477;BME280;4275;42.854;23.222;2022-08-07T02:30:16;81428.63;;;-141.02;81.47
8477;BME280;4275;42.854;23.222;2022-08-07T02:32:43;81449.97;;;-141.02;81.41
8477;BME280;4275;42.854;23.222;2022-08-07T02:35:11;81424.75;;;-141.02;80.25
8477;BME280;4275;42.854;23.222;2022-08-07T02:37:43;81453.88;;;-141.02;79.67
8477;BME280;4275;42.854;23.222;2022-08-07T02:40:11;81387.84;;;-141.02;80.54
8477;BME280;4275;42.854;23.222;2022-08-07T02:42:39;81341.25;;;-141.02;83.94
8477;BME280;4275;42.854;23.222;2022-08-07T02:45:11;81566.47;;;-141.02;86.14
8477;BME280;4275;42.854;23.222;2022-08-07T02:47:40;81527.66;;;-141.02;87.70
8477;BME280;4275;42.854;23.222;2022-08-07T02:50:08;81566.47;;;-141.02;88.34
8477;BME280;4275;42.854;23.222;2022-08-07T02:52:39;81554.84;;;-141.02;87.35
8477;BME280;4275;42.854;23.222;2022-08-07T02:55:15;81591.72;;;-141.02;90.37
8477;BME280;4275;42.854;23.222;2022-08-07T02:57:45;81659.69;;;-141.02;93.22
8477;BME280;4275;42.854;23.222;2022-08-07T03:00:14;81679.09;;;-141.02;94.48
8477;BME280;4275;42.854;23.222;2022-08-07T03:02:46;81642.22;;;-141.02;94.42
8477;BME280;4275;42.854;23.222;2022-08-07T03:05:14;81630.56;;;-141.02;93.87
8477;BME280;4275;42.854;23.222;2022-08-07T03:07:42;81665.50;;;-141.02;94.67
8477;BME280;4275;42.854;23.222;2022-08-07T03:10:11;81671.34;;;-141.02;95.26
8477;BME280;4275;42.854;23.222;2022-08-07T03:12:39;81570.38;;;-141.02;97.55
8477;BME280;4275;42.854;23.222;2022-08-07T03:15:08;81717.94;;;-141.02;99.48
8477;BME280;4275;42.854;23.222;2022-08-07T03:17:35;81717.94;;;-141.02;100.00
8477;BME280;4275;42.854;23.222;2022-08-07T03:20:06;81721.81;;;-141.02;100.00
8477;BME280;4275;42.854;23.222;2022-08-07T03:22:34;81714.06;;;-141.02;100.00
8477;BME280;4275;42.854;23.222;2022-08-07T03:25:04;81679.09;;;-141.02;99.54
8477;BME280;4275;42.854;23.222;2022-08-07T03:27:31;81698.53;;;-141.02;99.33
8477;BME280;4275;42.854;23.222;2022-08-07T03:29:59;81690.75;;;-141.02;99.62
8477;BME280;4275;42.854;23.222;2022-08-07T03:32:32;81733.47;;;-141.02;100.00
8477;BME280;4275;42.854;23.222;2022-08-07T03:35:02;81708.22;;;-141.02;100.00
8477;BME280;4275;42.854;23.222;2022-08-07T03:37:32;81690.75;;;-141.02;100.00
8477;BME280;4275;42.854;23.222;2022-08-07T03:40:02;81671.34;;;-141.02;100.00
8477;BME280;4275;42.854;23.222;2022-08-07T03:42:32;81640.28;;;-141.02;100.00
8477;BME280;4275;42.854;23.222;2022-08-07T03:45:00;81634.44;;;-141.02;100.00
8477;BME280;4275;42.854;23.222;2022-08-07T03:47:28;81630.56;;;-141.02;99.62
8477;BME280;4275;42.854;23.222;2022-08-07T03:49:56;81582.03;;;-141.02;99.24
8477;BME280;4275;42.854;23.222;2022-08-07T03:52:27;81601.44;;;-141.02;97.76
8477;BME280;4275;42.854;23.222;2022-08-07T03:54:57;81525.72;;;-141.02;95.11
8477;BME280;4275;42.854;23.222;2022-08-07T03:57:25;81477.16;;;-141.02;92.14
8477;BME280;4275;42.854;23.222;2022-08-07T03:59:54;81403.38;;;-141.02;89.73
8477;BME280;4275;42.854;23.222;2022-08-07T04:02:22;81403.38;;;-141.02;87.02
8477;BME280;4275;42.854;23.222;2022-08-07T04:04:49;81387.84;;;-141.02;85.35
8477;BME280;4275;42.854;23.222;2022-08-07T04:07:17;81387.84;;;-141.02;85.95
8477;BME280;4275;42.854;23.222;2022-08-07T04:09:45;81411.16;;;-141.02;85.93
8477;BME280;4275;42.854;23.222;2022-08-07T04:12:14;81449.97;;;-141.02;87.84
8477;BME280;4275;42.854;23.222;2022-08-07T04:14:42;81434.44;;;-141.02;86.63
8477;BME280;4275;42.854;23.222;2022-08-07T04:17:10;81461.63;;;-141.02;86.17
8477;BME280;4275;42.854;23.222;2022-08-07T04:19:39;81426.69;;;-141.02;85.72
8477;BME280;4275;42.854;23.222;2022-08-07T04:22:06;81411.16;;;-141.02;84.83
8477;BME280;4275;42.854;23.222;2022-08-07T04:24:34;81461.63;;;-141.02;86.54
8477;BME280;4275;42.854;23.222;2022-08-07T04:27:03;81442.22;;;-141.02;87.64
8477;BME280;4275;42.854;23.222;2022-08-07T04:29:31;81457.75;;;-141.02;85.96
8477;BME280;4275;42.854;23.222;2022-08-07T04:31:59;81438.34;;;-141.02;86.12
8477;BME280;4275;42.854;23.222;2022-08-07T04:34:28;82492.81;;;-141.02;85.59
8477;BME280;4275;42.854;23.222;2022-08-07T04:36:55;81391.72;;;-141.02;85.58
8477;BME280;4275;42.854;23.222;2022-08-07T04:39:23;81415.03;;;-141.02;85.61
8477;BME280;4275;42.854;23.222;2022-08-07T04:41:50;81418.91;;;-141.02;86.08
8477;BME280;4275;42.854;23.222;2022-08-07T04:44:17;81449.97;;;-141.02;88.12
8477;BME280;4275;42.854;23.222;2022-08-07T04:46:53;81378.13;;;-141.02;86.78
8477;BME280;4275;42.854;23.222;2022-08-07T04:49:29;81310.19;;;-141.02;84.31
8477;BME280;4275;42.854;23.222;2022-08-07T04:52:04;81226.69;;;-141.02;79.96
8477;BME280;4275;42.854;23.222;2022-08-07T04:54:42;81158.75;;;-141.02;74.89
8477;BME280;4275;42.854;23.222;2022-08-07T04:57:15;81081.09;;;-141.02;71.97
8477;BME280;4275;42.854;23.222;2022-08-07T04:59:53;81011.19;;;-141.02;69.81
8477;BME280;4275;42.854;23.222;2022-08-07T05:02:25;80974.31;;;-141.02;67.80
8477;BME280;4275;42.854;23.222;2022-08-07T05:04:59;80978.19;;;-141.02;66.97
8477;BME280;4275;42.854;23.222;2022-08-07T05:07:34;81018.97;;;-141.02;68.60
8477;BME280;4275;42.854;23.222;2022-08-07T05:10:07;80951.00;;;-141.02;67.87
8477;BME280;4275;42.854;23.222;2022-08-07T05:12:38;81046.13;;;-141.02;68.10
8477;BME280;4275;42.854;23.222;2022-08-07T05:15:09;80956.84;;;-141.02;67.65
8477;BME280;4275;42.854;23.222;2022-08-07T05:17:47;80914.13;;;-141.02;66.35
8477;BME280;4275;42.854;23.222;2022-08-07T05:20:16;80914.13;;;-141.02;66.00
8477;BME280;4275;42.854;23.222;2022-08-07T05:22:50;80937.41;;;-141.02;65.66
8477;BME280;4275;42.854;23.222;2022-08-07T05:25:19;80954.91;;;-141.02;65.74
8477;BME280;4275;42.854;23.222;2022-08-07T05:27:49;80952.94;;;-141.02;66.20
8477;BME280;4275;42.854;23.222;2022-08-07T05:30:17;80820.94;;;-141.02;66.77
8477;BME280;4275;42.854;23.222;2022-08-07T05:32:47;80960.72;;;-141.02;67.78
8477;BME280;4275;42.854;23.222;2022-08-07T05:35:15;80937.41;;;-141.02;66.55
8477;BME280;4275;42.854;23.222;2022-08-07T05:37:45;80910.25;;;-141.02;64.94
8477;BME280;4275;42.854;23.222;2022-08-07T05:40:12;80747.19;;;-141.02;62.97
8477;BME280;4275;42.854;23.222;2022-08-07T05:42:42;80828.72;;;-141.02;62.73
8477;BME280;4275;42.854;23.222;2022-08-07T05:45:10;80805.41;;;-141.02;62.18
8477;BME280;4275;42.854;23.222;2022-08-07T05:47:38;80797.66;;;-141.02;62.40
8477;BME280;4275;42.854;23.222;2022-08-07T05:50:08;80673.41;;;-141.02;59.37
8477;BME280;4275;42.854;23.222;2022-08-07T05:52:36;80735.53;;;-141.02;58.85
